メインページ
METAR-TAF:

METAR-TAF

空港 :

ダマスカス, シリア

ダマスカス国際空港

緯度: 33-25N, 経度: 036-31E, 海抜: 608m

現時点の気象観測

当レポートは1時間1分前の05:00(UTC)に作成
南西の風 6kt
気温 23°C
湿度 41%
気圧 1013 hPa
視程10km以上
1,500メートル以下は雲なし、積乱雲なし

METAR: OSDI 200500Z 22006KT CAVOK 23/09 Q1013

時間: 09:01 (06:01 UTC)

予報

当レポートは1時間31分前の04:30(UTC)に作成
予報は20日の 06時(UTC)から 21日の 12時(UTC)まで有効
変向風 3kt
視程10km以上
1,500メートル以下は雲なし、積乱雲なし
20日の 09時(UTC)から 20日の 18時(UTC)まで一時的に
南西の風 15kt、最大25ktの突風を伴う
視程10km以上
高度3000ftの雲はほとんどない

TAF: OSDI 200430Z 2006/2112 VRB03KT CAVOK TEMPO 2009/2018 22015G25KT 9999 FEW030

4,000以上の空港の気象観測と天気予報(METAR報とTAF報)

利用可能な観測所は地図上に黄色い丸と赤い丸で示す。

丸の上にカーソルを重ねると観測所名を参照できる。

次にクリックすると気象観測と天気予報を参照できる。

マップの切り替え:黒色「×」印の緑ボタンをクリックして拡大、「-」印の緑ボタンをクリックして縮小、緑色の三角印をクリックして隣りの地図に切り替え


METAR-TAF: